createdAt,value
2022-07-31T00:00:16.345Z,33.10
2022-07-31T00:02:46.792Z,33.40
2022-07-31T00:05:16.352Z,27.50
2022-07-31T00:07:46.221Z,26.53
2022-07-31T00:10:15.789Z,33.80
2022-07-31T00:12:45.768Z,33.77
2022-07-31T00:15:17.856Z,33.00
2022-07-31T00:17:47.894Z,33.90
2022-07-31T00:20:19.547Z,34.00
2022-07-31T00:22:50.648Z,34.43
2022-07-31T00:25:21.202Z,31.57
2022-07-31T00:27:50.648Z,35.17
2022-07-31T00:30:22.767Z,31.97
2022-07-31T00:32:52.593Z,31.67
2022-07-31T00:35:22.149Z,39.40
2022-07-31T00:37:54.797Z,38.83
2022-07-31T00:40:31.841Z,31.47
2022-07-31T00:43:01.327Z,31.03
2022-07-31T00:45:33.463Z,45.40
2022-07-31T00:48:03.966Z,31.00
2022-07-31T00:50:34.010Z,29.20
2022-07-31T00:53:03.632Z,31.90
2022-07-31T00:55:33.301Z,34.57
2022-07-31T00:58:21.084Z,28.40
2022-07-31T01:00:53.211Z,28.17
2022-07-31T01:03:22.917Z,31.13
2022-07-31T01:05:52.430Z,39.17
2022-07-31T01:08:21.914Z,30.37
2022-07-31T01:11:01.931Z,34.63
2022-07-31T01:13:35.941Z,29.30
2022-07-31T01:16:09.119Z,36.80
2022-07-31T01:18:40.073Z,32.40
2022-07-31T01:21:11.734Z,32.10
2022-07-31T01:23:55.086Z,40.93
2022-07-31T01:26:36.113Z,32.50
2022-07-31T01:29:17.138Z,29.50
2022-07-31T01:31:49.287Z,32.50
2022-07-31T01:34:38.269Z,28.43
2022-07-31T01:37:11.812Z,33.63
2022-07-31T01:39:45.471Z,32.70
2022-07-31T01:42:17.429Z,41.13
2022-07-31T01:44:54.230Z,41.93
2022-07-31T01:47:24.630Z,35.43
2022-07-31T01:49:56.155Z,39.10
2022-07-31T01:52:27.857Z,31.93
2022-07-31T01:54:58.558Z,35.80
2022-07-31T01:57:29.585Z,41.57
2022-07-31T02:00:23.529Z,36.37
2022-07-31T02:03:09.788Z,36.70
2022-07-31T02:05:41.389Z,29.20
2022-07-31T02:08:12.597Z,36.30
2022-07-31T02:10:42.705Z,39.60
2022-07-31T02:13:13.469Z,33.33
2022-07-31T02:15:45.962Z,31.60
2022-07-31T02:18:15.477Z,33.50
2022-07-31T02:20:45.426Z,30.30
2022-07-31T02:23:15.876Z,37.70
2022-07-31T02:25:46.266Z,33.10
2022-07-31T02:28:20.362Z,39.37
2022-07-31T02:30:52.936Z,32.77
2022-07-31T02:33:24.159Z,40.13
2022-07-31T02:35:56.806Z,29.10
2022-07-31T02:38:28.914Z,33.77
2022-07-31T02:41:00.676Z,37.77
2022-07-31T02:43:30.755Z,34.20
2022-07-31T02:46:02.974Z,44.90
2022-07-31T02:48:32.668Z,30.47
2022-07-31T02:51:02.473Z,33.47
2022-07-31T02:53:33.267Z,34.70
2022-07-31T02:56:04.635Z,31.07
2022-07-31T02:58:34.265Z,30.17
2022-07-31T03:01:08.350Z,35.83
2022-07-31T03:03:38.053Z,29.67
2022-07-31T03:06:07.687Z,34.60
2022-07-31T03:08:37.397Z,35.70
2022-07-31T03:11:06.872Z,33.80
2022-07-31T03:13:37.982Z,39.20
2022-07-31T03:16:12.358Z,26.87
2022-07-31T03:18:42.890Z,29.90
2022-07-31T03:21:12.942Z,32.20
2022-07-31T03:23:42.685Z,36.70
2022-07-31T03:26:15.140Z,38.40
2022-07-31T03:28:45.310Z,36.40
2022-07-31T03:31:17.359Z,34.77
2022-07-31T03:33:46.813Z,42.83
2022-07-31T03:36:16.293Z,39.63
2022-07-31T03:38:50.371Z,40.00
2022-07-31T03:41:20.308Z,33.83
2022-07-31T03:43:50.789Z,38.17
2022-07-31T03:46:24.358Z,35.50
2022-07-31T03:48:54.476Z,36.20
2022-07-31T03:51:24.274Z,32.80
2022-07-31T03:53:54.265Z,32.90
2022-07-31T03:56:24.453Z,34.83
2022-07-31T03:58:54.034Z,33.17
2022-07-31T04:01:27.274Z,41.53
2022-07-31T04:04:16.693Z,31.83
2022-07-31T04:06:46.476Z,40.20
2022-07-31T04:09:19.065Z,37.60
2022-07-31T04:11:48.686Z,37.57
2022-07-31T04:14:18.183Z,37.67
2022-07-31T04:16:50.298Z,35.83
2022-07-31T04:19:19.756Z,40.07
2022-07-31T04:21:50.422Z,39.10
2022-07-31T04:24:21.782Z,37.67
2022-07-31T04:26:51.671Z,53.10
2022-07-31T04:29:21.262Z,43.13
2022-07-31T04:31:53.455Z,40.43
2022-07-31T04:34:22.986Z,48.50
2022-07-31T04:36:52.494Z,36.70
2022-07-31T04:39:21.981Z,34.73
2022-07-31T04:41:51.982Z,32.67
2022-07-31T04:44:21.535Z,35.73
2022-07-31T04:46:53.625Z,35.40
2022-07-31T04:49:23.174Z,30.23
2022-07-31T04:51:53.059Z,46.00
2022-07-31T04:54:22.666Z,45.80
2022-07-31T04:56:52.187Z,39.83
2022-07-31T04:59:23.230Z,42.03
2022-07-31T05:01:55.452Z,42.20
2022-07-31T05:04:26.479Z,38.43
2022-07-31T05:06:56.122Z,40.60
2022-07-31T05:09:30.171Z,40.80
2022-07-31T05:12:02.028Z,42.83
2022-07-31T05:14:31.871Z,35.03
2022-07-31T05:17:03.930Z,36.63
2022-07-31T05:19:33.455Z,36.87
2022-07-31T05:22:05.425Z,41.53
2022-07-31T05:24:35.241Z,36.57
2022-07-31T05:27:05.193Z,42.47
2022-07-31T05:29:35.915Z,34.63
2022-07-31T05:32:08.794Z,34.90
2022-07-31T05:34:38.282Z,34.43
2022-07-31T05:37:08.035Z,41.93
2022-07-31T05:39:37.533Z,33.73
2022-07-31T05:42:07.896Z,39.93
2022-07-31T05:44:37.703Z,37.87
2022-07-31T05:47:12.196Z,41.93
2022-07-31T05:49:41.683Z,39.90
2022-07-31T05:52:11.459Z,38.30
2022-07-31T05:54:40.952Z,33.90
2022-07-31T05:57:10.535Z,40.03
2022-07-31T05:59:40.035Z,36.53
2022-07-31T06:02:12.183Z,34.13
2022-07-31T06:04:41.657Z,33.77
2022-07-31T06:07:11.159Z,31.93
2022-07-31T06:09:41.675Z,36.90
2022-07-31T06:12:12.106Z,29.00
2022-07-31T06:14:41.587Z,29.23
2022-07-31T06:17:13.775Z,31.57
2022-07-31T06:19:43.291Z,29.73
2022-07-31T06:22:12.837Z,28.67
2022-07-31T06:24:42.565Z,37.50
2022-07-31T06:27:18.763Z,29.53
2022-07-31T06:30:03.062Z,23.77
2022-07-31T06:32:35.239Z,36.67
2022-07-31T06:35:05.662Z,25.43
2022-07-31T06:37:35.170Z,33.27
2022-07-31T06:40:04.826Z,30.60
2022-07-31T06:42:34.445Z,19.63
2022-07-31T06:45:03.931Z,20.93
2022-07-31T06:47:36.024Z,21.20
2022-07-31T06:50:05.917Z,17.50
2022-07-31T06:52:35.616Z,14.63
2022-07-31T06:55:05.122Z,11.70
2022-07-31T06:57:34.731Z,16.47
2022-07-31T07:00:15.017Z,12.40
2022-07-31T07:02:52.933Z,21.17
2022-07-31T07:05:22.466Z,14.60
2022-07-31T07:07:51.961Z,37.40
2022-07-31T07:10:21.465Z,73.43
2022-07-31T07:12:51.013Z,13.30
2022-07-31T07:15:20.889Z,33.30
2022-07-31T07:17:52.972Z,9.67
2022-07-31T07:20:22.888Z,11.60
2022-07-31T07:22:52.491Z,10.57
2022-07-31T07:25:22.471Z,13.77
2022-07-31T07:27:52.005Z,24.80
2022-07-31T07:30:21.601Z,11.53
2022-07-31T07:32:53.767Z,11.50
2022-07-31T07:35:23.378Z,30.97
2022-07-31T07:37:52.858Z,13.33
2022-07-31T07:40:23.446Z,9.20
2022-07-31T07:42:53.161Z,17.80
2022-07-31T07:45:22.626Z,10.83
2022-07-31T07:48:06.705Z,11.40
2022-07-31T07:50:37.273Z,13.23
2022-07-31T07:53:06.807Z,12.37
2022-07-31T07:55:37.717Z,7.80
2022-07-31T07:58:11.875Z,8.93
2022-07-31T08:00:41.749Z,8.13
2022-07-31T08:03:49.636Z,16.67
2022-07-31T08:06:03.378Z,10.10
2022-07-31T08:08:32.902Z,31.20
2022-07-31T08:11:03.569Z,39.70
2022-07-31T08:13:33.218Z,8.53
2022-07-31T08:16:02.714Z,19.63
2022-07-31T08:18:34.781Z,24.87
2022-07-31T08:21:04.255Z,10.73
2022-07-31T08:23:33.839Z,9.30
2022-07-31T08:26:04.441Z,5.93
2022-07-31T08:28:36.251Z,13.27
2022-07-31T08:31:06.217Z,8.17
2022-07-31T08:33:38.294Z,11.67
2022-07-31T08:36:09.190Z,11.13
2022-07-31T08:38:39.238Z,11.77
2022-07-31T08:41:08.787Z,9.00
2022-07-31T08:44:01.890Z,11.23
2022-07-31T08:46:28.687Z,10.83
2022-07-31T08:49:01.209Z,7.60
2022-07-31T08:51:31.242Z,6.50
2022-07-31T08:54:02.460Z,5.53
2022-07-31T08:56:32.203Z,8.23
2022-07-31T08:59:01.916Z,8.27
2022-07-31T09:01:31.999Z,7.03
2022-07-31T09:04:04.493Z,6.33
2022-07-31T09:06:33.962Z,5.27
2022-07-31T09:09:03.498Z,6.57
2022-07-31T09:11:34.065Z,5.57
2022-07-31T09:14:04.843Z,8.00
2022-07-31T09:16:34.611Z,13.33
2022-07-31T09:19:52.786Z,8.40
2022-07-31T09:21:57.538Z,7.93
2022-07-31T09:24:31.674Z,4.37
2022-07-31T09:27:08.687Z,4.30
2022-07-31T09:29:39.343Z,9.40
2022-07-31T09:32:13.726Z,5.70
2022-07-31T09:34:46.320Z,5.40
2022-07-31T09:37:17.179Z,4.80
2022-07-31T09:39:52.790Z,6.23
2022-07-31T09:42:23.347Z,5.93
2022-07-31T09:44:53.682Z,6.80
2022-07-31T09:47:26.835Z,10.40
2022-07-31T09:50:00.985Z,4.97
2022-07-31T09:52:32.324Z,7.17
2022-07-31T09:55:15.015Z,8.80
2022-07-31T09:57:54.812Z,6.13
2022-07-31T10:00:24.924Z,4.53
2022-07-31T10:02:56.540Z,8.53
2022-07-31T10:05:31.512Z,11.40
2022-07-31T10:08:01.819Z,9.83
2022-07-31T10:10:32.772Z,8.00
2022-07-31T10:13:05.042Z,5.93
2022-07-31T10:15:36.301Z,5.47
2022-07-31T10:18:08.587Z,6.60
2022-07-31T10:20:42.423Z,6.07
2022-07-31T10:23:16.571Z,7.47
2022-07-31T10:25:53.472Z,4.73
2022-07-31T10:28:24.511Z,7.90
2022-07-31T10:30:54.399Z,8.37
2022-07-31T10:33:48.942Z,32.93
2022-07-31T10:36:19.653Z,16.00
2022-07-31T10:38:54.884Z,17.73
2022-07-31T10:41:31.819Z,27.63
2022-07-31T10:44:03.937Z,10.43
2022-07-31T10:46:34.898Z,5.10
2022-07-31T10:49:08.235Z,5.80
2022-07-31T10:51:49.510Z,4.73
2022-07-31T10:54:19.302Z,4.90
2022-07-31T10:56:49.507Z,11.43
2022-07-31T10:59:19.066Z,7.93
2022-07-31T11:01:52.589Z,4.77
2022-07-31T11:04:29.262Z,8.80
2022-07-31T11:07:01.829Z,10.90
2022-07-31T11:09:31.937Z,6.57
2022-07-31T11:12:01.668Z,6.27
2022-07-31T11:14:35.159Z,4.90
2022-07-31T11:17:05.064Z,7.73
2022-07-31T11:19:41.767Z,8.37
2022-07-31T11:22:31.840Z,8.40
2022-07-31T11:25:01.982Z,6.10
2022-07-31T11:27:34.437Z,9.03
2022-07-31T11:30:13.203Z,9.33
2022-07-31T11:32:43.557Z,5.73
2022-07-31T11:35:13.347Z,5.23
2022-07-31T11:37:57.769Z,6.70
2022-07-31T11:40:28.541Z,4.50
2022-07-31T11:43:25.314Z,10.90
2022-07-31T11:45:49.839Z,8.20
2022-07-31T11:48:20.734Z,7.10
2022-07-31T11:50:51.212Z,8.07
2022-07-31T11:53:23.935Z,6.37
2022-07-31T11:55:54.600Z,6.57
2022-07-31T11:58:26.139Z,6.47
2022-07-31T12:00:57.197Z,4.63
2022-07-31T12:03:31.877Z,5.10
2022-07-31T12:06:01.593Z,6.77
2022-07-31T12:08:34.921Z,8.27
2022-07-31T12:11:05.822Z,7.40
2022-07-31T12:13:35.345Z,6.13
2022-07-31T12:16:06.307Z,7.53
2022-07-31T12:18:37.280Z,5.17
2022-07-31T12:21:07.874Z,5.10
2022-07-31T12:23:49.693Z,5.73
2022-07-31T12:26:26.248Z,4.97
2022-07-31T12:29:02.842Z,7.60
2022-07-31T12:31:34.177Z,8.10
2022-07-31T12:34:03.688Z,5.90
2022-07-31T12:36:33.171Z,9.30
2022-07-31T12:39:06.869Z,8.73
2022-07-31T12:41:44.797Z,7.60
2022-07-31T12:44:15.202Z,6.37
2022-07-31T12:46:51.827Z,7.00
2022-07-31T12:49:21.553Z,8.23
2022-07-31T12:51:51.159Z,8.37
2022-07-31T12:54:23.236Z,4.73
2022-07-31T12:56:52.719Z,5.17
2022-07-31T12:59:22.199Z,7.63
2022-07-31T13:01:51.902Z,5.17
2022-07-31T13:04:21.392Z,8.10
2022-07-31T13:06:52.044Z,4.30
2022-07-31T13:09:24.239Z,5.80
2022-07-31T13:11:57.703Z,5.20
2022-07-31T13:14:28.205Z,7.00
2022-07-31T13:16:58.291Z,7.20
2022-07-31T13:19:28.460Z,9.13
2022-07-31T13:21:58.059Z,6.93
2022-07-31T13:24:30.547Z,8.80
2022-07-31T13:27:01.608Z,9.90
2022-07-31T13:29:31.287Z,9.20
2022-07-31T13:32:00.919Z,4.97
2022-07-31T13:34:30.540Z,6.90
2022-07-31T13:37:00.036Z,6.30
2022-07-31T13:39:32.070Z,5.50
2022-07-31T13:42:01.663Z,6.47
2022-07-31T13:44:33.269Z,5.73
2022-07-31T13:47:03.227Z,7.33
2022-07-31T13:49:34.712Z,4.30
2022-07-31T13:52:04.688Z,4.93
2022-07-31T13:54:36.934Z,5.33
2022-07-31T13:57:06.984Z,11.13
2022-07-31T13:59:36.521Z,6.63
2022-07-31T14:02:06.196Z,10.47
2022-07-31T14:04:38.839Z,10.53
2022-07-31T14:07:09.417Z,9.13
2022-07-31T14:09:51.398Z,6.77
2022-07-31T14:12:24.945Z,7.20
2022-07-31T14:14:54.454Z,5.97
2022-07-31T14:17:24.075Z,6.60
2022-07-31T14:19:53.661Z,8.50
2022-07-31T14:22:23.202Z,7.20
2022-07-31T14:24:55.578Z,6.20
2022-07-31T14:27:25.057Z,7.70
2022-07-31T14:29:54.610Z,8.13
2022-07-31T14:32:25.276Z,13.27
2022-07-31T14:34:54.919Z,15.67
2022-07-31T14:37:24.424Z,8.30
2022-07-31T14:39:56.749Z,19.93
2022-07-31T14:42:26.955Z,11.33
2022-07-31T14:44:56.625Z,7.30
2022-07-31T14:47:26.105Z,5.20
2022-07-31T14:50:08.617Z,7.50
2022-07-31T14:52:40.399Z,4.97
2022-07-31T14:55:13.035Z,11.90
2022-07-31T14:57:42.699Z,17.53
2022-07-31T15:00:15.216Z,7.30
2022-07-31T15:02:45.924Z,9.13
2022-07-31T15:06:51.001Z,16.67
2022-07-31T15:08:05.362Z,17.93
2022-07-31T15:10:37.773Z,20.23
2022-07-31T15:13:07.320Z,11.33
2022-07-31T15:15:36.843Z,9.50
2022-07-31T15:18:06.723Z,10.50
2022-07-31T15:20:37.060Z,9.50
2022-07-31T15:23:07.103Z,11.23
2022-07-31T15:25:39.264Z,24.17
2022-07-31T15:28:08.761Z,15.20
2022-07-31T15:30:38.518Z,12.13
2022-07-31T15:33:08.151Z,11.60
2022-07-31T15:35:37.694Z,24.77
2022-07-31T15:38:07.316Z,32.40
2022-07-31T15:40:39.471Z,15.47
2022-07-31T15:43:08.942Z,17.23
2022-07-31T15:45:38.438Z,18.30
2022-07-31T15:48:10.170Z,18.00
2022-07-31T15:50:40.305Z,14.87
2022-07-31T15:53:09.871Z,19.97
2022-07-31T15:55:41.999Z,18.70
2022-07-31T15:58:11.663Z,14.47
2022-07-31T16:00:41.283Z,42.40
2022-07-31T16:03:10.870Z,17.27
2022-07-31T16:05:55.763Z,16.13
2022-07-31T16:08:30.449Z,30.53
2022-07-31T16:11:06.700Z,21.63
2022-07-31T16:13:36.686Z,18.60
2022-07-31T16:16:06.453Z,16.90
2022-07-31T16:18:35.958Z,21.23
2022-07-31T16:21:05.725Z,28.80
2022-07-31T16:23:35.266Z,32.80
2022-07-31T16:26:07.888Z,19.70
2022-07-31T16:28:37.404Z,35.97
2022-07-31T16:31:07.031Z,43.23
2022-07-31T16:33:36.630Z,57.60
2022-07-31T16:36:06.331Z,37.17
2022-07-31T16:38:35.776Z,20.27
2022-07-31T16:41:07.863Z,31.67
2022-07-31T16:43:50.021Z,24.77
2022-07-31T16:46:21.150Z,21.87
2022-07-31T16:48:50.796Z,21.07
2022-07-31T16:51:20.462Z,36.73
2022-07-31T16:54:10.936Z,30.13
2022-07-31T16:56:42.280Z,23.23
2022-07-31T16:59:11.773Z,27.57
2022-07-31T17:01:59.049Z,21.63
2022-07-31T17:04:30.653Z,18.27
2022-07-31T17:07:00.378Z,25.00
2022-07-31T17:09:31.551Z,21.00
2022-07-31T17:12:04.372Z,20.10
2022-07-31T17:14:34.040Z,26.17
2022-07-31T17:17:03.821Z,29.20
2022-07-31T17:19:41.592Z,23.00
2022-07-31T17:22:17.840Z,24.33
2022-07-31T17:24:50.867Z,26.80
2022-07-31T17:27:24.334Z,24.70
2022-07-31T17:29:55.125Z,18.60
2022-07-31T17:32:24.680Z,17.50
2022-07-31T17:34:54.185Z,17.67
2022-07-31T17:37:24.650Z,23.93
2022-07-31T17:39:57.742Z,19.40
2022-07-31T17:42:30.420Z,23.10
2022-07-31T17:45:02.017Z,16.10
2022-07-31T17:47:31.878Z,20.50
2022-07-31T17:50:01.329Z,19.17
2022-07-31T17:52:30.935Z,17.80
2022-07-31T17:55:01.430Z,16.73
2022-07-31T17:57:34.015Z,19.70
2022-07-31T18:00:04.005Z,24.80
2022-07-31T18:02:33.714Z,22.00
2022-07-31T18:05:03.256Z,27.10
2022-07-31T18:07:32.903Z,22.93
2022-07-31T18:10:02.393Z,31.23
2022-07-31T18:12:56.846Z,36.63
2022-07-31T18:15:34.651Z,23.13
2022-07-31T18:18:05.583Z,24.70
2022-07-31T18:20:35.805Z,26.90
2022-07-31T18:23:05.442Z,31.87
2022-07-31T18:25:39.726Z,28.90
2022-07-31T18:28:11.798Z,35.20
2022-07-31T18:30:42.243Z,35.87
2022-07-31T18:33:14.234Z,29.70
2022-07-31T18:35:43.916Z,43.07
2022-07-31T18:38:13.634Z,38.77
2022-07-31T18:40:43.158Z,35.53
2022-07-31T18:43:15.443Z,32.90
2022-07-31T18:45:44.898Z,34.40
2022-07-31T18:48:14.378Z,31.53
2022-07-31T18:50:59.458Z,28.87
2022-07-31T18:53:33.489Z,26.10
2022-07-31T18:56:03.021Z,30.83
2022-07-31T18:58:35.115Z,25.63
2022-07-31T19:01:05.435Z,29.10
2022-07-31T19:03:34.927Z,30.90
2022-07-31T19:06:04.506Z,29.87
2022-07-31T19:08:34.521Z,29.97
2022-07-31T19:11:04.022Z,31.57
2022-07-31T19:13:36.306Z,32.47
2022-07-31T19:16:05.843Z,30.43
2022-07-31T19:18:36.018Z,40.90
2022-07-31T19:21:23.523Z,65.90
2022-07-31T19:23:55.784Z,38.60
2022-07-31T19:26:25.343Z,41.80
2022-07-31T19:28:57.478Z,33.00
2022-07-31T19:31:26.974Z,32.80
2022-07-31T19:33:56.446Z,36.80
2022-07-31T19:36:25.962Z,39.70
2022-07-31T19:38:55.521Z,34.90
2022-07-31T19:41:25.248Z,35.93
2022-07-31T19:43:57.322Z,37.57
2022-07-31T19:46:26.846Z,54.73
2022-07-31T19:48:56.418Z,45.67
2022-07-31T19:51:26.016Z,47.90
2022-07-31T19:53:55.559Z,49.90
2022-07-31T19:56:25.145Z,71.50
2022-07-31T19:58:57.246Z,67.97
2022-07-31T20:01:27.186Z,75.87
2022-07-31T20:03:57.780Z,66.17
2022-07-31T20:06:28.160Z,44.07
2022-07-31T20:08:59.162Z,37.70
2022-07-31T20:11:28.633Z,31.10
2022-07-31T20:14:00.925Z,34.67
2022-07-31T20:16:30.848Z,35.53
2022-07-31T20:19:00.906Z,32.50
2022-07-31T20:21:31.938Z,35.30
2022-07-31T20:24:04.538Z,48.43
2022-07-31T20:26:36.438Z,31.37
2022-07-31T20:29:08.610Z,32.73
2022-07-31T20:31:38.235Z,31.87
2022-07-31T20:34:07.706Z,32.03
2022-07-31T20:36:37.311Z,30.97
2022-07-31T20:39:06.900Z,35.20
2022-07-31T20:41:36.497Z,30.00
2022-07-31T20:44:08.671Z,30.90
2022-07-31T20:46:38.275Z,22.37
2022-07-31T20:49:07.811Z,22.77
2022-07-31T20:51:52.150Z,35.47
2022-07-31T20:54:34.083Z,18.20
2022-07-31T20:57:04.483Z,16.87
2022-07-31T20:59:36.650Z,18.17
2022-07-31T21:02:06.485Z,16.93
2022-07-31T21:04:36.293Z,18.50
2022-07-31T21:07:05.820Z,19.00
2022-07-31T21:09:35.373Z,23.60
2022-07-31T21:12:06.832Z,21.67
2022-07-31T21:14:39.162Z,24.10
2022-07-31T21:17:08.678Z,35.23
2022-07-31T21:19:38.122Z,23.30
2022-07-31T21:22:07.942Z,56.07
2022-07-31T21:24:38.546Z,28.60
2022-07-31T21:27:08.807Z,34.17
2022-07-31T21:29:41.508Z,30.63
2022-07-31T21:32:12.399Z,37.73
2022-07-31T21:34:42.567Z,25.93
2022-07-31T21:37:16.167Z,45.50
2022-07-31T21:39:46.413Z,29.13
2022-07-31T21:42:17.914Z,29.00
2022-07-31T21:44:50.729Z,69.67
2022-07-31T21:47:22.897Z,33.93
2022-07-31T21:49:58.363Z,35.03
2022-07-31T21:52:30.084Z,40.53
2022-07-31T21:55:03.838Z,43.17
2022-07-31T21:57:59.370Z,38.33
2022-07-31T22:00:27.530Z,41.20
2022-07-31T22:02:58.831Z,115.23
2022-07-31T22:05:40.859Z,43.80
2022-07-31T22:08:10.416Z,33.53
2022-07-31T22:10:39.982Z,34.93
2022-07-31T22:13:10.083Z,31.13
2022-07-31T22:15:59.054Z,30.27
2022-07-31T22:18:30.459Z,30.53
2022-07-31T22:21:00.488Z,75.20
2022-07-31T22:23:31.221Z,50.87
2022-07-31T22:26:01.354Z,31.20
2022-07-31T22:28:31.399Z,35.97
2022-07-31T22:31:04.652Z,32.40
2022-07-31T22:33:34.354Z,44.50
2022-07-31T22:36:07.183Z,39.30
2022-07-31T22:38:38.162Z,34.27
2022-07-31T22:41:08.005Z,37.13
2022-07-31T22:44:10.710Z,73.80
2022-07-31T22:46:30.360Z,33.70
2022-07-31T22:49:02.616Z,40.60
2022-07-31T22:51:38.442Z,78.60
2022-07-31T22:54:08.510Z,40.40
2022-07-31T22:56:37.997Z,41.40
2022-07-31T22:59:08.881Z,34.50
2022-07-31T23:01:40.960Z,46.80
2022-07-31T23:04:10.555Z,49.23
2022-07-31T23:06:40.071Z,36.00
2022-07-31T23:09:09.569Z,34.80
2022-07-31T23:11:39.079Z,34.47
2022-07-31T23:14:08.743Z,33.70
2022-07-31T23:16:40.972Z,46.73
2022-07-31T23:19:10.652Z,36.70
2022-07-31T23:21:40.597Z,34.80
2022-07-31T23:24:10.998Z,50.43
2022-07-31T23:26:40.506Z,73.00
2022-07-31T23:29:10.038Z,36.30
2022-07-31T23:31:42.290Z,47.50
2022-07-31T23:34:12.043Z,34.50
2022-07-31T23:36:41.509Z,33.50
2022-07-31T23:39:12.861Z,44.77
2022-07-31T23:41:55.371Z,36.63
2022-07-31T23:44:25.182Z,39.93
2022-07-31T23:46:57.354Z,23.77
2022-07-31T23:49:26.902Z,23.10
2022-07-31T23:51:56.606Z,23.90
2022-07-31T23:54:26.098Z,24.70
2022-07-31T23:56:55.638Z,28.50
2022-07-31T23:59:25.129Z,25.27
